createdAt,value
2022-08-31T00:00:41.543Z,18.91
2022-08-31T00:01:41.546Z,18.92
2022-08-31T00:02:41.523Z,18.92
2022-08-31T00:03:41.516Z,18.91
2022-08-31T00:04:41.615Z,18.88
2022-08-31T00:05:41.494Z,18.86
2022-08-31T00:06:41.475Z,18.88
2022-08-31T00:07:41.488Z,18.85
2022-08-31T00:08:41.462Z,18.85
2022-08-31T00:09:41.463Z,18.83
2022-08-31T00:10:43.267Z,18.83
2022-08-31T00:11:41.425Z,18.82
2022-08-31T00:12:41.405Z,18.82
2022-08-31T00:13:41.421Z,18.82
2022-08-31T00:14:41.434Z,18.81
2022-08-31T00:15:41.398Z,18.79
2022-08-31T00:16:41.447Z,18.79
2022-08-31T00:17:41.368Z,18.78
2022-08-31T00:18:41.465Z,18.74
2022-08-31T00:19:41.344Z,18.71
2022-08-31T00:20:41.343Z,18.71
2022-08-31T00:21:41.456Z,18.70
2022-08-31T00:22:41.293Z,18.67
2022-08-31T00:23:41.285Z,18.68
2022-08-31T00:24:41.285Z,18.67
2022-08-31T00:25:41.306Z,18.66
2022-08-31T00:26:41.258Z,18.67
2022-08-31T00:27:41.364Z,18.66
2022-08-31T00:28:41.234Z,18.64
2022-08-31T00:29:41.232Z,18.63
2022-08-31T00:30:41.219Z,18.61
2022-08-31T00:31:41.284Z,18.61
2022-08-31T00:32:41.225Z,18.60
2022-08-31T00:33:41.211Z,18.58
2022-08-31T00:34:41.166Z,18.57
2022-08-31T00:35:41.154Z,18.60
2022-08-31T00:36:41.144Z,18.57
2022-08-31T00:37:41.143Z,18.57
2022-08-31T00:38:41.141Z,18.53
2022-08-31T00:39:41.175Z,18.57
2022-08-31T00:40:44.923Z,18.57
2022-08-31T00:41:41.104Z,18.55
2022-08-31T00:42:41.083Z,18.55
2022-08-31T00:43:41.073Z,18.53
2022-08-31T00:44:41.158Z,18.55
2022-08-31T00:45:41.095Z,18.52
2022-08-31T00:46:41.053Z,18.51
2022-08-31T00:47:41.027Z,18.49
2022-08-31T00:48:41.014Z,18.48
2022-08-31T00:49:41.045Z,18.46
2022-08-31T00:50:41.413Z,18.45
2022-08-31T00:51:40.985Z,18.42
2022-08-31T00:52:40.964Z,18.41
2022-08-31T00:53:40.965Z,18.41
2022-08-31T00:54:40.944Z,18.41
2022-08-31T00:55:40.949Z,18.41
2022-08-31T00:56:40.938Z,18.41
2022-08-31T00:57:40.925Z,18.37
2022-08-31T00:58:40.904Z,18.36
2022-08-31T00:59:40.903Z,18.34
2022-08-31T01:00:40.918Z,18.27
2022-08-31T01:01:40.884Z,18.27
2022-08-31T01:02:40.925Z,18.30
2022-08-31T01:03:40.856Z,18.30
2022-08-31T01:04:40.854Z,18.28
2022-08-31T01:05:40.825Z,18.30
2022-08-31T01:06:40.834Z,18.28
2022-08-31T01:07:40.807Z,18.30
2022-08-31T01:08:40.785Z,18.30
2022-08-31T01:09:41.290Z,18.31
2022-08-31T01:10:41.771Z,18.30
2022-08-31T01:11:40.756Z,18.27
2022-08-31T01:12:40.745Z,18.27
2022-08-31T01:13:40.746Z,18.24
2022-08-31T01:14:40.735Z,18.23
2022-08-31T01:15:40.724Z,18.16
2022-08-31T01:16:40.761Z,18.16
2022-08-31T01:17:40.695Z,18.13
2022-08-31T01:18:40.713Z,18.13
2022-08-31T01:19:40.684Z,18.11
2022-08-31T01:20:40.672Z,18.09
2022-08-31T01:21:41.648Z,18.06
2022-08-31T01:22:40.658Z,18.05
2022-08-31T01:23:40.645Z,18.05
2022-08-31T01:24:40.615Z,18.05
2022-08-31T01:25:40.595Z,18.03
2022-08-31T01:26:40.588Z,18.00
2022-08-31T01:27:40.600Z,18.02
2022-08-31T01:28:40.574Z,17.95
2022-08-31T01:29:40.564Z,17.95
2022-08-31T01:30:40.535Z,17.93
2022-08-31T01:31:40.631Z,17.94
2022-08-31T01:32:40.545Z,17.94
2022-08-31T01:33:40.516Z,17.91
2022-08-31T01:34:40.496Z,17.88
2022-08-31T01:35:40.512Z,17.87
2022-08-31T01:36:40.466Z,17.87
2022-08-31T01:37:40.475Z,17.86
2022-08-31T01:38:40.458Z,17.84
2022-08-31T01:39:40.465Z,17.82
2022-08-31T01:40:40.457Z,17.80
2022-08-31T01:41:40.428Z,17.76
2022-08-31T01:42:40.407Z,17.72
2022-08-31T01:43:40.406Z,17.71
2022-08-31T01:44:40.393Z,17.72
2022-08-31T01:45:40.386Z,17.71
2022-08-31T01:46:40.434Z,17.65
2022-08-31T01:47:40.357Z,17.65
2022-08-31T01:48:41.400Z,17.60
2022-08-31T01:49:40.346Z,17.57
2022-08-31T01:50:40.344Z,17.56
2022-08-31T01:51:40.317Z,17.57
2022-08-31T01:52:40.319Z,17.59
2022-08-31T01:53:40.301Z,17.59
2022-08-31T01:54:40.310Z,17.59
2022-08-31T01:55:40.292Z,17.63
2022-08-31T01:56:40.278Z,17.60
2022-08-31T01:57:40.256Z,17.59
2022-08-31T01:58:40.263Z,17.57
2022-08-31T01:59:40.239Z,17.56
2022-08-31T02:00:40.369Z,17.56
2022-08-31T02:01:40.529Z,17.56
2022-08-31T02:02:40.263Z,17.47
2022-08-31T02:03:40.190Z,17.47
2022-08-31T02:04:40.171Z,17.47
2022-08-31T02:05:40.166Z,17.44
2022-08-31T02:06:40.151Z,17.47
2022-08-31T02:07:40.146Z,17.46
2022-08-31T02:08:40.152Z,17.41
2022-08-31T02:09:40.129Z,17.39
2022-08-31T02:10:40.146Z,17.38
2022-08-31T02:11:40.110Z,17.39
2022-08-31T02:12:40.091Z,17.37
2022-08-31T02:13:40.074Z,17.38
2022-08-31T02:14:40.098Z,17.35
2022-08-31T02:15:40.061Z,17.38
2022-08-31T02:16:40.113Z,17.35
2022-08-31T02:17:40.027Z,17.32
2022-08-31T02:18:40.234Z,17.28
2022-08-31T02:19:40.017Z,17.30
2022-08-31T02:20:40.001Z,17.30
2022-08-31T02:21:40.016Z,17.27
2022-08-31T02:22:39.968Z,17.24
2022-08-31T02:23:39.974Z,17.23
2022-08-31T02:24:39.975Z,17.20
2022-08-31T02:25:40.003Z,17.19
2022-08-31T02:26:39.930Z,17.14
2022-08-31T02:27:39.927Z,17.12
2022-08-31T02:28:39.937Z,17.10
2022-08-31T02:29:39.909Z,17.09
2022-08-31T02:30:39.887Z,17.04
2022-08-31T02:31:40.120Z,17.04
2022-08-31T02:32:39.937Z,17.01
2022-08-31T02:33:39.887Z,17.05
2022-08-31T02:34:39.852Z,17.02
2022-08-31T02:35:39.835Z,16.99
2022-08-31T02:36:39.824Z,17.02
2022-08-31T02:37:39.850Z,17.02
2022-08-31T02:38:39.797Z,17.01
2022-08-31T02:39:39.815Z,17.04
2022-08-31T02:40:39.832Z,17.02
2022-08-31T02:41:39.776Z,17.02
2022-08-31T02:42:53.121Z,16.99
2022-08-31T02:43:40.760Z,16.99
2022-08-31T02:44:39.740Z,16.92
2022-08-31T02:45:39.718Z,16.91
2022-08-31T02:46:39.758Z,16.91
2022-08-31T02:47:39.717Z,16.89
2022-08-31T02:48:39.707Z,16.84
2022-08-31T02:49:39.688Z,16.80
2022-08-31T02:50:39.680Z,16.82
2022-08-31T02:51:39.647Z,16.79
2022-08-31T02:52:39.646Z,16.80
2022-08-31T02:53:39.672Z,16.79
2022-08-31T02:54:39.628Z,16.77
2022-08-31T02:55:39.607Z,16.83
2022-08-31T02:56:39.607Z,16.77
2022-08-31T02:57:39.588Z,16.77
2022-08-31T02:58:39.597Z,16.74
2022-08-31T02:59:39.566Z,16.74
2022-08-31T03:00:39.611Z,16.74
2022-08-31T03:01:39.575Z,16.69
2022-08-31T03:02:39.555Z,16.65
2022-08-31T03:03:39.537Z,16.69
2022-08-31T03:04:39.517Z,16.68
2022-08-31T03:05:39.506Z,16.66
2022-08-31T03:06:39.502Z,16.62
2022-08-31T03:07:39.484Z,16.59
2022-08-31T03:08:39.467Z,16.58
2022-08-31T03:09:39.464Z,16.55
2022-08-31T03:10:39.487Z,16.55
2022-08-31T03:11:39.436Z,16.50
2022-08-31T03:12:39.428Z,16.47
2022-08-31T03:13:39.446Z,16.47
2022-08-31T03:14:39.407Z,16.50
2022-08-31T03:15:39.443Z,16.51
2022-08-31T03:16:39.387Z,16.54
2022-08-31T03:17:39.370Z,16.50
2022-08-31T03:18:39.377Z,16.49
2022-08-31T03:19:39.357Z,16.44
2022-08-31T03:20:39.355Z,16.46
2022-08-31T03:21:39.330Z,16.47
2022-08-31T03:22:39.326Z,16.46
2022-08-31T03:23:39.312Z,16.43
2022-08-31T03:24:39.299Z,16.36
2022-08-31T03:25:39.829Z,16.36
2022-08-31T03:26:39.318Z,16.39
2022-08-31T03:27:39.259Z,16.40
2022-08-31T03:28:39.287Z,16.37
2022-08-31T03:29:39.250Z,16.36
2022-08-31T03:30:39.416Z,16.34
2022-08-31T03:31:39.365Z,16.36
2022-08-31T03:32:39.304Z,16.32
2022-08-31T03:33:39.223Z,16.32
2022-08-31T03:34:39.214Z,16.29
2022-08-31T03:35:39.254Z,16.31
2022-08-31T03:36:39.188Z,16.31
2022-08-31T03:37:39.190Z,16.34
2022-08-31T03:38:39.148Z,16.28
2022-08-31T03:39:39.147Z,16.25
2022-08-31T03:40:39.158Z,16.21
2022-08-31T03:41:39.106Z,16.18
2022-08-31T03:42:39.101Z,16.21
2022-08-31T03:43:39.077Z,16.18
2022-08-31T03:44:39.087Z,16.17
2022-08-31T03:45:39.068Z,16.16
2022-08-31T03:46:39.111Z,16.10
2022-08-31T03:47:44.809Z,16.13
2022-08-31T03:48:40.038Z,16.13
2022-08-31T03:49:39.383Z,16.13
2022-08-31T03:50:39.057Z,16.10
2022-08-31T03:51:38.998Z,16.08
2022-08-31T03:52:38.987Z,16.08
2022-08-31T03:53:38.977Z,16.08
2022-08-31T03:54:38.968Z,16.00
2022-08-31T03:55:38.954Z,15.98
2022-08-31T03:56:38.970Z,15.98
2022-08-31T03:57:38.931Z,15.96
2022-08-31T03:58:38.927Z,15.92
2022-08-31T03:59:38.958Z,15.98
2022-08-31T04:00:38.897Z,15.98
2022-08-31T04:01:38.919Z,15.99
2022-08-31T04:02:38.989Z,15.96
2022-08-31T04:03:38.878Z,15.96
2022-08-31T04:04:38.866Z,15.92
2022-08-31T04:05:38.848Z,15.92
2022-08-31T04:06:38.848Z,15.92
2022-08-31T04:07:42.474Z,15.91
2022-08-31T04:08:38.818Z,15.84
2022-08-31T04:09:38.801Z,15.87
2022-08-31T04:10:38.788Z,15.83
2022-08-31T04:11:44.350Z,15.84
2022-08-31T04:12:39.768Z,15.81
2022-08-31T04:13:38.759Z,15.83
2022-08-31T04:14:38.757Z,15.81
2022-08-31T04:15:38.809Z,15.78
2022-08-31T04:16:38.728Z,15.78
2022-08-31T04:17:38.722Z,15.76
2022-08-31T04:18:38.708Z,15.76
2022-08-31T04:19:38.696Z,15.73
2022-08-31T04:20:38.691Z,15.73
2022-08-31T04:21:38.661Z,15.72
2022-08-31T04:22:38.757Z,15.70
2022-08-31T04:23:38.687Z,15.69
2022-08-31T04:24:38.698Z,15.69
2022-08-31T04:25:38.706Z,15.70
2022-08-31T04:26:38.657Z,15.70
2022-08-31T04:27:38.645Z,15.67
2022-08-31T04:28:38.667Z,15.70
2022-08-31T04:29:38.656Z,15.72
2022-08-31T04:30:38.659Z,15.72
2022-08-31T04:31:38.607Z,15.69
2022-08-31T04:32:38.576Z,15.66
2022-08-31T04:33:38.548Z,15.66
2022-08-31T04:34:38.609Z,15.59
2022-08-31T04:35:38.633Z,15.57
2022-08-31T04:36:38.526Z,15.59
2022-08-31T04:37:39.286Z,15.54
2022-08-31T04:38:38.532Z,15.52
2022-08-31T04:39:50.395Z,15.51
2022-08-31T04:40:39.606Z,15.50
2022-08-31T04:41:38.476Z,15.51
2022-08-31T04:42:38.477Z,15.48
2022-08-31T04:43:38.467Z,15.48
2022-08-31T04:44:38.447Z,15.47
2022-08-31T04:45:38.491Z,15.50
2022-08-31T04:46:38.427Z,15.52
2022-08-31T04:47:38.507Z,15.51
2022-08-31T04:48:38.457Z,15.51
2022-08-31T04:49:38.423Z,15.54
2022-08-31T04:50:42.470Z,15.55
2022-08-31T04:51:38.387Z,15.54
2022-08-31T04:52:38.412Z,15.57
2022-08-31T04:53:38.335Z,15.63
2022-08-31T04:54:38.318Z,15.65
2022-08-31T04:55:38.298Z,15.66
2022-08-31T04:56:38.301Z,15.67
2022-08-31T04:57:38.268Z,15.67
2022-08-31T04:58:38.307Z,15.67
2022-08-31T04:59:38.247Z,15.66
2022-08-31T05:00:38.228Z,15.69
2022-08-31T05:01:43.123Z,15.69
2022-08-31T05:02:39.294Z,15.69
2022-08-31T05:03:38.200Z,15.65
2022-08-31T05:04:38.218Z,15.66
2022-08-31T05:05:38.417Z,15.66
2022-08-31T05:06:38.197Z,15.67
2022-08-31T05:07:38.186Z,15.72
2022-08-31T05:08:38.167Z,15.76
2022-08-31T05:09:38.135Z,15.78
2022-08-31T05:10:39.808Z,15.81
2022-08-31T05:11:38.148Z,15.80
2022-08-31T05:12:38.157Z,15.76
2022-08-31T05:13:38.106Z,15.76
2022-08-31T05:14:38.098Z,15.73
2022-08-31T05:15:38.104Z,15.75
2022-08-31T05:16:38.059Z,15.75
2022-08-31T05:17:38.098Z,15.75
2022-08-31T05:18:38.109Z,15.70
2022-08-31T05:19:41.129Z,15.69
2022-08-31T05:20:38.048Z,15.69
2022-08-31T05:21:38.015Z,15.73
2022-08-31T05:22:38.006Z,15.75
2022-08-31T05:23:37.987Z,15.70
2022-08-31T05:24:38.047Z,15.70
2022-08-31T05:25:38.112Z,15.73
2022-08-31T05:26:38.080Z,15.69
2022-08-31T05:27:37.977Z,15.70
2022-08-31T05:28:37.945Z,15.70
2022-08-31T05:29:37.906Z,15.70
2022-08-31T05:30:38.041Z,15.75
2022-08-31T05:31:37.901Z,15.80
2022-08-31T05:32:38.618Z,15.83
2022-08-31T05:33:37.896Z,15.84
2022-08-31T05:34:37.937Z,15.81
2022-08-31T05:35:37.847Z,15.80
2022-08-31T05:36:37.867Z,15.80
2022-08-31T05:37:37.845Z,15.73
2022-08-31T05:38:37.839Z,15.73
2022-08-31T05:39:37.832Z,15.70
2022-08-31T05:40:37.905Z,15.76
2022-08-31T05:41:37.817Z,15.76
2022-08-31T05:42:37.758Z,15.81
2022-08-31T05:43:37.784Z,15.81
2022-08-31T05:44:37.767Z,15.85
2022-08-31T05:45:37.798Z,15.87
2022-08-31T05:46:37.842Z,15.92
2022-08-31T05:47:37.736Z,15.94
2022-08-31T05:48:37.708Z,15.99
2022-08-31T05:49:37.699Z,15.99
2022-08-31T05:50:37.778Z,16.02
2022-08-31T05:51:38.692Z,16.05
2022-08-31T05:52:37.726Z,16.09
2022-08-31T05:53:37.758Z,16.12
2022-08-31T05:54:37.657Z,16.17
2022-08-31T05:55:37.657Z,16.18
2022-08-31T05:56:37.697Z,16.24
2022-08-31T05:57:37.686Z,16.31
2022-08-31T05:58:37.644Z,16.32
2022-08-31T05:59:37.587Z,16.34
2022-08-31T06:00:37.598Z,16.37
2022-08-31T06:01:37.618Z,16.43
2022-08-31T06:02:37.591Z,16.44
2022-08-31T06:03:38.557Z,16.46
2022-08-31T06:04:37.568Z,16.50
2022-08-31T06:05:37.600Z,16.55
2022-08-31T06:06:39.528Z,16.54
2022-08-31T06:07:37.508Z,16.69
2022-08-31T06:08:37.524Z,16.82
2022-08-31T06:09:37.729Z,16.97
2022-08-31T06:10:37.560Z,17.10
2022-08-31T06:11:37.593Z,17.30
2022-08-31T06:12:37.477Z,17.42
2022-08-31T06:13:37.468Z,17.54
2022-08-31T06:14:38.821Z,17.66
2022-08-31T06:15:42.382Z,17.75
2022-08-31T06:16:38.441Z,17.90
2022-08-31T06:17:37.417Z,17.94
2022-08-31T06:18:37.390Z,17.91
2022-08-31T06:19:37.430Z,17.84
2022-08-31T06:20:37.435Z,17.82
2022-08-31T06:21:37.548Z,17.90
2022-08-31T06:22:38.148Z,17.94
2022-08-31T06:23:37.328Z,18.05
2022-08-31T06:24:37.413Z,18.11
2022-08-31T06:25:37.299Z,18.16
2022-08-31T06:26:37.318Z,18.19
2022-08-31T06:27:37.262Z,18.26
2022-08-31T06:28:37.248Z,18.30
2022-08-31T06:29:37.271Z,18.34
2022-08-31T06:30:44.216Z,18.31
2022-08-31T06:31:38.284Z,18.41
2022-08-31T06:32:37.228Z,18.46
2022-08-31T06:33:37.280Z,18.42
2022-08-31T06:34:37.324Z,18.41
2022-08-31T06:35:37.238Z,18.36
2022-08-31T06:36:37.249Z,18.42
2022-08-31T06:37:37.216Z,18.48
2022-08-31T06:38:37.228Z,18.53
2022-08-31T06:39:37.169Z,18.57
2022-08-31T06:40:37.298Z,18.61
2022-08-31T06:41:37.173Z,18.64
2022-08-31T06:42:37.149Z,18.70
2022-08-31T06:43:37.205Z,18.67
2022-08-31T06:44:37.129Z,18.67
2022-08-31T06:45:37.149Z,18.71
2022-08-31T06:46:37.219Z,18.70
2022-08-31T06:47:37.076Z,18.71
2022-08-31T06:48:37.138Z,18.71
2022-08-31T06:49:37.101Z,18.71
2022-08-31T06:50:37.140Z,18.73
2022-08-31T06:51:37.093Z,18.71
2022-08-31T06:52:39.049Z,18.76
2022-08-31T06:53:37.032Z,18.83
2022-08-31T06:54:37.104Z,18.83
2022-08-31T06:55:37.401Z,18.94
2022-08-31T06:56:37.113Z,18.96
2022-08-31T06:57:37.039Z,18.92
2022-08-31T06:58:37.004Z,18.94
2022-08-31T06:59:36.950Z,18.96
2022-08-31T07:00:37.008Z,18.96
2022-08-31T07:01:36.976Z,18.94
2022-08-31T07:02:37.150Z,18.94
2022-08-31T07:03:36.926Z,18.98
2022-08-31T07:04:36.933Z,19.05
2022-08-31T07:05:36.903Z,19.07
2022-08-31T07:06:37.900Z,19.08
2022-08-31T07:07:36.866Z,19.09
2022-08-31T07:08:36.863Z,19.15
2022-08-31T07:09:36.833Z,19.16
2022-08-31T07:10:37.113Z,19.16
2022-08-31T07:11:39.838Z,19.17
2022-08-31T07:12:37.913Z,19.19
2022-08-31T07:13:36.867Z,19.24
2022-08-31T07:14:36.783Z,19.27
2022-08-31T07:15:36.820Z,19.34
2022-08-31T07:16:36.796Z,19.34
2022-08-31T07:17:36.747Z,19.35
2022-08-31T07:18:36.743Z,19.30
2022-08-31T07:19:36.727Z,19.34
2022-08-31T07:20:36.726Z,19.37
2022-08-31T07:21:36.706Z,19.38
2022-08-31T07:22:36.746Z,19.35
2022-08-31T07:23:36.682Z,19.44
2022-08-31T07:24:36.676Z,19.44
2022-08-31T07:25:36.735Z,19.49
2022-08-31T07:26:36.746Z,19.55
2022-08-31T07:27:36.673Z,19.63
2022-08-31T07:28:36.643Z,19.66
2022-08-31T07:29:36.644Z,19.57
2022-08-31T07:30:36.669Z,19.56
2022-08-31T07:31:36.604Z,19.57
2022-08-31T07:32:36.669Z,19.60
2022-08-31T07:33:36.592Z,19.66
2022-08-31T07:34:36.582Z,19.82
2022-08-31T07:35:36.590Z,19.92
2022-08-31T07:36:36.543Z,20.00
2022-08-31T07:37:36.554Z,20.03
2022-08-31T07:38:36.521Z,20.18
2022-08-31T07:39:36.641Z,20.48
2022-08-31T07:40:36.566Z,20.48
2022-08-31T07:41:36.518Z,20.42
2022-08-31T07:42:36.473Z,20.37
2022-08-31T07:43:36.443Z,20.40
2022-08-31T07:44:36.454Z,20.32
2022-08-31T07:45:39.202Z,20.27
2022-08-31T07:46:36.518Z,20.30
2022-08-31T07:47:36.450Z,20.34
2022-08-31T07:48:36.425Z,20.52
2022-08-31T07:49:36.382Z,20.75
2022-08-31T07:50:36.353Z,20.98
2022-08-31T07:51:36.389Z,21.11
2022-08-31T07:52:36.388Z,21.03
2022-08-31T07:53:36.367Z,20.98
2022-08-31T07:54:36.391Z,20.96
2022-08-31T07:55:36.355Z,20.95
2022-08-31T07:56:36.378Z,20.88
2022-08-31T07:57:36.335Z,20.83
2022-08-31T07:58:36.286Z,20.93
2022-08-31T07:59:36.314Z,20.95
2022-08-31T08:00:36.353Z,21.01
2022-08-31T08:01:36.454Z,21.11
2022-08-31T08:02:36.311Z,21.13
2022-08-31T08:03:36.249Z,21.30
2022-08-31T08:04:36.263Z,21.51
2022-08-31T08:05:36.305Z,21.68
2022-08-31T08:06:36.228Z,21.78
2022-08-31T08:07:36.263Z,21.81
2022-08-31T08:08:36.176Z,21.92
2022-08-31T08:09:36.237Z,21.96
2022-08-31T08:10:36.175Z,21.92
2022-08-31T08:11:36.198Z,22.04
2022-08-31T08:12:36.332Z,22.28
2022-08-31T08:13:36.197Z,22.70
2022-08-31T08:14:36.159Z,23.04
2022-08-31T08:15:36.210Z,23.20
2022-08-31T08:16:36.271Z,23.23
2022-08-31T08:17:36.140Z,23.25
2022-08-31T08:18:36.098Z,23.26
2022-08-31T08:19:36.073Z,23.37
2022-08-31T08:20:38.485Z,23.32
2022-08-31T08:21:36.128Z,23.40
2022-08-31T08:22:51.733Z,23.66
2022-08-31T08:23:37.027Z,23.82
2022-08-31T08:24:36.068Z,23.79
2022-08-31T08:25:36.023Z,23.99
2022-08-31T08:26:36.054Z,24.34
2022-08-31T08:27:36.036Z,24.47
2022-08-31T08:28:39.812Z,24.19
2022-08-31T08:29:35.940Z,24.09
2022-08-31T08:30:35.941Z,24.38
2022-08-31T08:31:35.978Z,24.47
2022-08-31T08:32:35.954Z,24.34
2022-08-31T08:33:35.969Z,24.09
2022-08-31T08:34:35.916Z,23.89
2022-08-31T08:35:35.881Z,23.79
2022-08-31T08:36:35.916Z,23.63
2022-08-31T08:37:56.743Z,23.62
2022-08-31T08:38:36.905Z,23.56
2022-08-31T08:39:35.831Z,23.85
2022-08-31T08:40:35.893Z,23.92
2022-08-31T08:41:35.867Z,24.04
2022-08-31T08:42:35.819Z,23.81
2022-08-31T08:43:35.802Z,23.73
2022-08-31T08:44:35.795Z,24.25
2022-08-31T08:45:35.932Z,24.77
2022-08-31T08:46:35.994Z,25.06
2022-08-31T08:47:37.486Z,25.31
2022-08-31T08:48:35.762Z,25.43
2022-08-31T08:49:35.770Z,25.54
2022-08-31T08:50:35.711Z,25.58
2022-08-31T08:51:35.710Z,25.76
2022-08-31T08:52:35.692Z,25.81
2022-08-31T08:53:35.721Z,26.06
2022-08-31T08:54:35.685Z,26.19
2022-08-31T08:55:35.701Z,26.34
2022-08-31T08:56:35.651Z,26.42
2022-08-31T08:57:35.651Z,26.45
2022-08-31T08:58:35.602Z,26.34
2022-08-31T08:59:35.584Z,26.24
2022-08-31T09:00:35.582Z,26.37
2022-08-31T09:01:35.694Z,26.56
2022-08-31T09:02:35.628Z,26.68
2022-08-31T09:03:35.613Z,26.68
2022-08-31T09:04:35.545Z,26.93
2022-08-31T09:05:35.558Z,27.23
2022-08-31T09:06:45.427Z,26.97
2022-08-31T09:07:36.597Z,26.88
2022-08-31T09:08:35.502Z,26.70
2022-08-31T09:09:35.518Z,26.78
2022-08-31T09:10:35.512Z,26.88
2022-08-31T09:11:35.511Z,26.96
2022-08-31T09:12:35.554Z,26.81
2022-08-31T09:13:35.549Z,26.97
2022-08-31T09:14:35.562Z,27.08
2022-08-31T09:15:35.582Z,27.05
2022-08-31T09:16:35.533Z,27.03
2022-08-31T09:17:35.407Z,27.23
2022-08-31T09:18:35.465Z,27.41
2022-08-31T09:19:35.391Z,27.29
2022-08-31T09:20:35.408Z,27.40
2022-08-31T09:21:35.396Z,27.61
2022-08-31T09:22:35.377Z,27.83
2022-08-31T09:23:35.355Z,27.95
2022-08-31T09:24:35.306Z,27.97
2022-08-31T09:25:35.296Z,28.22
2022-08-31T09:26:35.322Z,28.40
2022-08-31T09:27:35.367Z,28.22
2022-08-31T09:28:35.318Z,27.98
2022-08-31T09:29:35.289Z,27.81
2022-08-31T09:30:35.279Z,28.00
2022-08-31T09:31:35.271Z,28.33
2022-08-31T09:32:35.286Z,28.64
2022-08-31T09:33:35.254Z,28.68
2022-08-31T09:34:35.279Z,28.72
2022-08-31T09:35:35.331Z,28.75
2022-08-31T09:36:35.216Z,28.77
2022-08-31T09:37:35.182Z,28.90
2022-08-31T09:38:35.196Z,29.27
2022-08-31T09:39:37.233Z,29.30
2022-08-31T09:40:35.226Z,29.40
2022-08-31T09:41:35.270Z,29.55
2022-08-31T09:42:35.149Z,29.76
2022-08-31T09:43:35.188Z,29.90
2022-08-31T09:44:35.088Z,30.11
2022-08-31T09:45:38.735Z,30.38
2022-08-31T09:46:36.069Z,30.46
2022-08-31T09:47:35.108Z,30.54
2022-08-31T09:48:35.109Z,30.52
2022-08-31T09:49:35.079Z,30.51
2022-08-31T09:50:35.038Z,30.39
2022-08-31T09:51:35.075Z,30.21
2022-08-31T09:52:35.009Z,30.44
2022-08-31T09:53:35.018Z,30.96
2022-08-31T09:54:35.079Z,31.25
2022-08-31T09:55:34.980Z,31.29
2022-08-31T09:56:34.965Z,31.51
2022-08-31T09:57:35.000Z,31.54
2022-08-31T09:58:34.937Z,31.29
2022-08-31T09:59:35.739Z,31.07
2022-08-31T10:00:34.991Z,30.93
2022-08-31T10:01:34.967Z,31.23
2022-08-31T10:02:34.970Z,31.47
2022-08-31T10:03:34.999Z,31.50
2022-08-31T10:04:35.039Z,31.54
2022-08-31T10:05:34.997Z,31.44
2022-08-31T10:06:34.859Z,31.14
2022-08-31T10:07:34.905Z,30.43
2022-08-31T10:08:34.884Z,30.20
2022-08-31T10:09:34.928Z,29.79
2022-08-31T10:10:34.856Z,28.92
2022-08-31T10:11:34.831Z,28.68
2022-08-31T10:12:34.815Z,28.70
2022-08-31T10:13:34.833Z,28.92
2022-08-31T10:14:34.820Z,29.05
2022-08-31T10:15:34.932Z,29.27
2022-08-31T10:16:34.794Z,29.62
2022-08-31T10:17:34.772Z,29.69
2022-08-31T10:18:34.756Z,29.62
2022-08-31T10:19:34.747Z,29.55
2022-08-31T10:20:34.725Z,29.37
2022-08-31T10:21:34.719Z,29.25
2022-08-31T10:22:34.766Z,29.13
2022-08-31T10:23:34.680Z,28.92
2022-08-31T10:24:34.806Z,28.37
2022-08-31T10:25:34.700Z,28.01
2022-08-31T10:26:34.699Z,27.75
2022-08-31T10:27:34.687Z,27.68
2022-08-31T10:28:34.706Z,27.47
2022-08-31T10:29:34.657Z,27.44
2022-08-31T10:30:34.636Z,27.43
2022-08-31T10:31:34.671Z,27.41
2022-08-31T10:32:34.598Z,27.34
2022-08-31T10:33:34.672Z,27.28
2022-08-31T10:34:34.586Z,27.37
2022-08-31T10:35:34.582Z,27.44
2022-08-31T10:36:34.566Z,27.47
2022-08-31T10:37:34.577Z,27.41
2022-08-31T10:38:34.599Z,27.45
2022-08-31T10:39:34.647Z,27.44
2022-08-31T10:40:34.576Z,27.45
2022-08-31T10:41:34.501Z,27.45
2022-08-31T10:42:34.498Z,27.52
2022-08-31T10:43:34.486Z,27.64
2022-08-31T10:44:34.449Z,27.79
2022-08-31T10:45:34.448Z,27.66
2022-08-31T10:46:34.690Z,27.37
2022-08-31T10:47:34.606Z,27.19
2022-08-31T10:48:34.539Z,27.16
2022-08-31T10:49:34.436Z,27.18
2022-08-31T10:50:34.478Z,27.29
2022-08-31T10:51:34.434Z,27.73
2022-08-31T10:52:34.390Z,28.09
2022-08-31T10:53:35.908Z,28.40
2022-08-31T10:54:35.521Z,28.50
2022-08-31T10:55:34.329Z,28.77
2022-08-31T10:56:34.330Z,28.87
2022-08-31T10:57:34.309Z,28.97
2022-08-31T10:58:34.295Z,28.80
2022-08-31T10:59:34.302Z,28.80
2022-08-31T11:00:34.392Z,28.94
2022-08-31T11:01:34.384Z,28.93
2022-08-31T11:02:34.263Z,28.96
2022-08-31T11:03:34.278Z,28.84
2022-08-31T11:04:34.303Z,28.94
2022-08-31T11:05:34.290Z,29.24
2022-08-31T11:06:34.259Z,29.46
2022-08-31T11:07:34.237Z,29.42
2022-08-31T11:08:34.244Z,29.53
2022-08-31T11:09:34.207Z,29.76
2022-08-31T11:10:34.189Z,29.49
2022-08-31T11:11:34.234Z,29.37
2022-08-31T11:12:34.174Z,29.86
2022-08-31T11:13:34.158Z,30.32
2022-08-31T11:14:34.166Z,30.46
2022-08-31T11:15:34.182Z,31.39
2022-08-31T11:16:34.151Z,31.95
2022-08-31T11:17:34.145Z,32.34
2022-08-31T11:18:34.216Z,32.66
2022-08-31T11:19:34.157Z,32.60
2022-08-31T11:20:34.076Z,31.81
2022-08-31T11:21:34.080Z,30.98
2022-08-31T11:22:34.067Z,30.46
2022-08-31T11:23:34.099Z,29.87
2022-08-31T11:24:37.503Z,30.14
2022-08-31T11:25:34.057Z,30.43
2022-08-31T11:26:34.051Z,31.22
2022-08-31T11:27:34.020Z,31.62
2022-08-31T11:28:34.084Z,31.72
2022-08-31T11:29:34.480Z,31.89
2022-08-31T11:30:36.559Z,31.64
2022-08-31T11:31:34.010Z,31.82
2022-08-31T11:32:33.977Z,31.28
2022-08-31T11:33:34.008Z,30.71
2022-08-31T11:34:34.053Z,30.36
2022-08-31T11:35:33.949Z,30.21
2022-08-31T11:36:34.919Z,30.06
2022-08-31T11:37:33.960Z,29.89
2022-08-31T11:38:33.930Z,29.65
2022-08-31T11:39:33.948Z,30.10
2022-08-31T11:40:33.998Z,30.21
2022-08-31T11:41:33.888Z,29.95
2022-08-31T11:42:33.929Z,29.79
2022-08-31T11:43:33.930Z,29.59
2022-08-31T11:44:34.201Z,29.71
2022-08-31T11:45:34.014Z,30.48
2022-08-31T11:46:33.870Z,31.08
2022-08-31T11:47:33.790Z,31.62
2022-08-31T11:48:33.798Z,31.67
2022-08-31T11:49:33.818Z,32.26
2022-08-31T11:50:33.750Z,32.23
2022-08-31T11:51:38.635Z,31.70
2022-08-31T11:52:34.820Z,32.35
2022-08-31T11:53:33.969Z,32.90
2022-08-31T11:54:33.771Z,32.91
2022-08-31T11:55:33.682Z,33.28
2022-08-31T11:56:33.733Z,33.88
2022-08-31T11:57:37.615Z,34.22
2022-08-31T11:58:33.663Z,34.48
2022-08-31T11:59:34.406Z,34.71
2022-08-31T12:00:33.724Z,34.71
2022-08-31T12:01:33.635Z,34.96
2022-08-31T12:02:33.682Z,35.38
2022-08-31T12:03:33.606Z,35.71
2022-08-31T12:04:33.694Z,35.71
2022-08-31T12:05:33.650Z,35.37
2022-08-31T12:06:33.670Z,35.60
2022-08-31T12:07:33.586Z,35.68
2022-08-31T12:08:33.559Z,35.86
2022-08-31T12:09:36.267Z,35.76
2022-08-31T12:10:33.548Z,35.90
2022-08-31T12:11:33.569Z,36.29
2022-08-31T12:12:33.555Z,36.55
2022-08-31T12:13:33.576Z,36.88
2022-08-31T12:14:33.506Z,37.07
2022-08-31T12:15:33.522Z,37.21
2022-08-31T12:16:33.538Z,37.40
2022-08-31T12:17:33.489Z,37.76
2022-08-31T12:18:34.795Z,37.40
2022-08-31T12:19:33.545Z,35.38
2022-08-31T12:20:33.468Z,34.07
2022-08-31T12:21:33.436Z,34.59
2022-08-31T12:22:33.419Z,35.87
2022-08-31T12:23:33.534Z,36.81
2022-08-31T12:24:33.629Z,37.40
2022-08-31T12:25:33.419Z,37.71
2022-08-31T12:26:33.363Z,37.72
2022-08-31T12:27:33.373Z,37.43
2022-08-31T12:28:33.332Z,37.63
2022-08-31T12:29:33.349Z,37.72
2022-08-31T12:30:33.323Z,37.43
2022-08-31T12:31:33.337Z,37.10
2022-08-31T12:32:33.324Z,36.84
2022-08-31T12:33:33.310Z,36.48
2022-08-31T12:34:33.334Z,35.12
2022-08-31T12:35:33.474Z,34.11
2022-08-31T12:36:33.262Z,33.16
2022-08-31T12:37:33.251Z,32.12
2022-08-31T12:38:33.301Z,31.08
2022-08-31T12:39:33.296Z,30.31
2022-08-31T12:40:33.299Z,29.96
2022-08-31T12:41:33.239Z,29.98
2022-08-31T12:42:33.192Z,29.83
2022-08-31T12:43:33.213Z,29.77
2022-08-31T12:44:33.213Z,29.57
2022-08-31T12:45:33.623Z,29.39
2022-08-31T12:46:33.194Z,31.05
2022-08-31T12:47:33.134Z,33.00
2022-08-31T12:48:33.141Z,33.32
2022-08-31T12:49:33.146Z,33.61
2022-08-31T12:50:33.109Z,34.28
2022-08-31T12:51:33.111Z,35.04
2022-08-31T12:52:33.097Z,34.75